Time;durP1;ratioP1;P1;durP2;ratioP2;P2;SDS_P1;SDS_P2;PMS_P1;PMS_P2;Temp;Humidity;BMP_temperature;BMP_pressure;BME280_temperature;BME280_humidity;BME280_pressure;Samples;Min_cycle;Max_cycle;Signal;HPM_P1;HPM_P2
2023/03/22 00:00:38;;;;;;;5.13;3.87;;;;;;;10.85;100.00;64085.91;5031928;28;20283;-54
2023/03/22 00:03:05;;;;;;;6.00;4.43;;;;;;;10.91;100.00;64088.00;5032174;28;20194;-55
2023/03/22 00:05:31;;;;;;;4.87;3.93;;;;;;;11.08;100.00;64111.13;5014112;28;20750;-55
2023/03/22 00:07:59;;;;;;;5.87;4.17;;;;;;;10.86;100.00;64087.03;5031739;28;20202;-55
2023/03/22 00:10:27;;;;;;;6.77;4.57;;;;;;;10.18;100.00;64012.59;5031869;28;20198;-54
2023/03/22 00:12:54;;;;;;;5.73;5.00;;;;;;;10.08;100.00;64002.72;5031760;28;20198;-55
2023/03/22 00:15:19;;;;;;;5.67;5.13;;;;;;;10.10;100.00;64004.94;5031700;28;20206;-53
2023/03/22 00:17:45;;;;;;;5.50;4.90;;;;;;;10.05;100.00;63999.44;5031806;28;20205;-56
2023/03/22 00:20:11;;;;;;;5.33;4.67;;;;;;;10.13;100.00;64008.22;5013847;28;20244;-57
2023/03/22 00:22:38;;;;;;;6.57;5.00;;;;;;;10.07;100.00;64001.63;5031681;28;20269;-56
2023/03/22 00:25:05;;;;;;;5.57;4.70;;;;;;;10.09;100.00;64003.28;5031819;28;20214;-59
2023/03/22 00:27:31;;;;;;;5.83;4.50;;;;;;;10.14;100.00;64009.31;5013760;28;20197;-59
2023/03/22 00:29:57;;;;;;;6.67;4.80;;;;;;;10.14;100.00;64011.81;5031618;28;20691;-55
2023/03/22 00:32:22;;;;;;;5.03;4.53;;;;;;;10.26;100.00;64018.84;5031532;28;20194;-55
2023/03/22 00:34:48;;;;;;;7.00;5.50;;;;;;;10.30;100.00;64025.72;5031753;28;20210;-56
2023/03/22 00:37:15;;;;;;;6.00;5.40;;;;;;;10.43;100.00;64042.47;5031474;28;20186;-54
2023/03/22 00:39:41;;;;;;;7.17;4.50;;;;;;;10.35;100.00;64031.19;5013449;28;20241;-57
2023/03/22 00:42:07;;;;;;;5.40;4.13;;;;;;;10.48;100.00;64045.97;5031478;28;20225;-54
2023/03/22 00:44:33;;;;;;;5.30;4.03;;;;;;;10.40;100.00;64036.69;5031264;28;20256;-55
2023/03/22 00:46:58;;;;;;;6.07;4.10;;;;;;;10.15;100.00;64009.88;5013500;28;20698;-55
2023/03/22 00:49:27;;;;;;;5.20;4.43;;;;;;;10.33;100.00;64029.00;5030248;28;20683;-59
2023/03/22 00:51:52;;;;;;;3.87;3.47;;;;;;;10.18;100.00;64013.13;5031228;28;20552;-56
2023/03/22 00:54:18;;;;;;;4.00;3.30;;;;;;;10.09;100.00;64003.28;5031471;28;20252;-58
2023/03/22 00:56:44;;;;;;;4.07;3.50;;;;;;;10.08;100.00;64000.22;5012410;28;20636;-54
2023/03/22 00:59:11;;;;;;;3.90;3.50;;;;;;;10.15;100.00;64012.38;5031168;28;20226;-56
2023/03/22 01:01:36;;;;;;;3.53;3.00;;;;;;;10.06;100.00;63999.97;5030908;28;20190;-56
2023/03/22 01:04:03;;;;;;;3.20;2.90;;;;;;;9.93;100.00;63985.78;5031420;28;20248;-56
2023/03/22 01:06:30;;;;;;;5.67;3.30;;;;;;;9.73;100.00;63966.41;5030860;28;20236;-54
2023/03/22 01:08:56;;;;;;;6.30;3.20;;;;;;;9.72;100.00;63960.28;5030750;28;20213;-54
2023/03/22 01:11:22;;;;;;;3.50;3.20;;;;;;;9.75;100.00;63964.13;5030723;28;20313;-54
2023/03/22 01:13:47;;;;;;;3.83;2.97;;;;;;;9.64;100.00;63954.59;5031144;28;20542;-56
2023/03/22 01:16:12;;;;;;;4.60;3.53;;;;;;;9.71;100.00;63962.25;5030593;28;20194;-56
2023/03/22 01:18:38;;;;;;;4.93;4.00;;;;;;;9.56;100.00;63948.38;5030445;28;20244;-55
2023/03/22 01:21:04;;;;;;;3.93;3.53;;;;;;;9.52;100.00;63941.47;5030673;28;20185;-55
2023/03/22 01:23:30;;;;;;;4.23;3.80;;;;;;;9.53;100.00;63942.59;5030561;28;20667;-56
2023/03/22 01:25:56;;;;;;;5.53;4.20;;;;;;;9.42;100.00;63930.00;5030546;28;20202;-56
2023/03/22 01:28:21;;;;;;;4.03;3.63;;;;;;;9.60;100.00;63947.72;5030742;28;20194;-54
2023/03/22 01:30:47;;;;;;;5.03;3.93;;;;;;;9.39;100.00;63927.28;5030600;28;20217;-56
2023/03/22 01:33:12;;;;;;;4.37;3.87;;;;;;;9.34;100.00;63919.28;5012931;28;20194;-57
2023/03/22 01:35:38;;;;;;;5.77;4.67;;;;;;;9.44;100.00;63932.72;5030531;28;20214;-55
2023/03/22 01:38:04;;;;;;;6.27;4.60;;;;;;;9.32;100.00;63920.16;5030693;28;20202;-56
2023/03/22 01:40:31;;;;;;;4.23;3.67;;;;;;;9.33;100.00;63921.25;5030272;28;20225;-55
2023/03/22 01:42:56;;;;;;;4.60;4.10;;;;;;;9.24;100.00;63913.38;5030642;28;20198;-55
2023/03/22 01:45:21;;;;;;;4.03;3.50;;;;;;;9.53;100.00;63942.03;5030196;28;20583;-54
2023/03/22 01:47:59;;;;;;;3.93;3.27;;;;;;;9.55;100.00;63941.69;5030339;28;20191;-55
2023/03/22 01:50:25;;;;;;;3.83;3.30;;;;;;;9.44;100.00;63929.66;5030232;28;20225;-57
2023/03/22 01:52:51;;;;;;;4.80;3.80;;;;;;;9.43;100.00;63931.09;5030346;28;20256;-55
2023/03/22 01:55:21;;;;;;;3.80;3.40;;;;;;;9.51;100.00;63939.84;5030405;28;20220;-59
2023/03/22 01:57:47;;;;;;;4.47;3.30;;;;;;;9.59;100.00;63946.63;5030467;28;20214;-59
2023/03/22 02:00:14;;;;;;;4.13;3.70;;;;;;;9.47;100.00;63938.53;5030203;28;20214;-58
2023/03/22 02:02:47;;;;;;;6.30;4.30;;;;;;;9.48;100.00;63937.09;5030204;28;20313;-59
2023/03/22 02:05:13;;;;;;;5.27;4.00;;;;;;;9.50;100.00;63938.75;5030086;28;20206;-58
2023/03/22 02:07:40;;;;;;;5.57;4.30;;;;;;;9.36;100.00;63923.44;5030701;28;20216;-60
2023/03/22 02:10:13;;;;;;;5.70;4.57;;;;;;;9.33;100.00;63921.25;5033712;28;20637;-55
2023/03/22 02:12:51;;;;;;;5.57;4.37;;;;;;;9.35;100.00;63919.84;5033674;28;20623;-60
2023/03/22 02:15:33;;;;;;;5.67;4.43;;;;;;;9.45;100.00;63935.78;5015847;28;20287;-55
2023/03/22 02:18:55;;;;;;;6.20;4.10;;;;;;;9.57;100.00;63946.94;5015944;28;20193;-56
2023/03/22 02:21:33;;;;;;;10.33;5.70;;;;;;;9.68;100.00;63958.41;4972462;28;20291;-57
2023/03/22 02:24:44;;;;;;;8.83;5.90;;;;;;;9.80;100.00;63969.03;4972361;28;20224;-56
2023/03/22 02:27:14;;;;;;;7.73;5.37;;;;;;;9.71;100.00;63961.72;5032506;28;20211;-56
2023/03/22 02:29:45;;;;;;;5.33;4.57;;;;;;;9.78;100.00;63969.34;5033529;28;20241;-54
2023/03/22 02:32:31;;;;;;;7.53;5.17;;;;;;;9.93;100.00;63986.31;5033487;28;20671;-54
2023/03/22 02:35:09;;;;;;;5.90;4.83;;;;;;;9.93;100.00;63988.84;5040855;22;20233;-54
2023/03/22 02:37:55;;;;;;;6.00;4.57;;;;;;;9.81;100.00;63970.13;5033382;28;20194;-55
2023/03/22 02:40:37;;;;;;;5.10;4.50;;;;;;;9.76;100.00;63967.72;5033028;28;20288;-54
2023/03/22 02:43:05;;;;;;;5.23;3.97;;;;;;;9.54;100.00;63943.66;5033027;28;20194;-55
2023/03/22 02:45:52;;;;;;;5.37;4.57;;;;;;;9.41;100.00;63929.47;5015352;28;20691;-55
2023/03/22 02:48:26;;;;;;;5.00;4.50;;;;;;;9.49;100.00;63935.69;5032997;28;20182;-54
2023/03/22 02:51:22;;;;;;;6.23;4.80;;;;;;;9.49;100.00;63937.66;5032931;28;20206;-55
2023/03/22 02:53:54;;;;;;;6.80;4.37;;;;;;;9.47;100.00;63938.53;5033015;28;20195;-59
2023/03/22 02:56:43;;;;;;;4.43;4.00;;;;;;;9.50;100.00;63938.75;5032937;28;20193;-55
2023/03/22 02:59:11;;;;;;;6.20;4.70;;;;;;;9.39;100.00;63926.72;5033043;28;20245;-54
2023/03/22 03:01:48;;;;;;;6.97;5.47;;;;;;;9.31;100.00;63918.53;5032724;28;20224;-54
2023/03/22 03:04:22;;;;;;;6.17;4.63;;;;;;;9.40;100.00;63927.81;5033006;28;20295;-53
2023/03/22 03:06:51;;;;;;;6.80;4.67;;;;;;;9.53;100.00;63945.09;5032882;28;20174;-53
2023/03/22 03:09:18;;;;;;;3.10;2.90;;;;;;;9.42;100.00;63930.53;5032509;28;20220;-53
2023/03/22 03:11:46;;;;;;;2.77;2.57;;;;;;;9.49;100.00;63940.72;5031367;28;20260;-58
2023/03/22 03:14:26;;;;;;;2.90;2.70;;;;;;;9.41;100.00;63929.47;5032784;28;20297;-58
2023/03/22 03:17:18;;;;;;;3.40;2.50;;;;;;;9.18;100.00;63901.78;5032743;28;20663;-53
2023/03/22 03:19:59;;;;;;;2.97;2.67;;;;;;;9.06;100.00;63888.69;5024836;28;20785;-56
2023/03/22 03:22:46;;;;;;;4.13;2.83;;;;;;;9.08;100.00;63896.44;5032980;28;20187;-56
2023/03/22 03:25:17;;;;;;;2.17;1.97;;;;;;;9.03;100.00;63887.94;5032394;28;20300;-56
2023/03/22 03:28:08;;;;;;;2.77;2.13;;;;;;;9.23;100.00;63912.81;5032481;28;20186;-57
2023/03/22 03:30:43;;;;;;;4.07;2.93;;;;;;;9.32;100.00;63917.66;5032841;28;20686;-54
2023/03/22 03:33:16;;;;;;;2.70;2.50;;;;;;;9.28;100.00;63912.72;5032747;28;20186;-55
2023/03/22 03:35:59;;;;;;;2.20;2.00;;;;;;;9.16;100.00;63905.19;5032713;28;20289;-55
2023/03/22 03:38:28;;;;;;;1.93;1.73;;;;;;;9.20;100.00;63906.50;5032408;28;20185;-53
2023/03/22 03:41:01;;;;;;;1.97;1.87;;;;;;;9.20;100.00;63909.00;5032226;28;20217;-54
2023/03/22 03:43:27;;;;;;;3.70;2.13;;;;;;;9.30;100.00;63917.44;5032365;28;20213;-54
2023/03/22 03:45:54;;;;;;;1.80;1.70;;;;;;;9.17;100.00;63903.22;5032102;28;20280;-55
2023/03/22 03:48:22;;;;;;;3.63;2.17;;;;;;;9.36;100.00;63923.97;5031947;28;20236;-53
2023/03/22 03:50:51;;;;;;;2.80;2.40;;;;;;;9.37;100.00;63925.09;5032223;28;20275;-55
2023/03/22 03:53:16;;;;;;;1.83;1.70;;;;;;;9.37;100.00;63925.09;5032037;28;20202;-56
2023/03/22 03:55:42;;;;;;;1.77;1.67;;;;;;;9.29;100.00;63916.88;5032044;28;20210;-55
2023/03/22 03:58:08;;;;;;;2.37;2.00;;;;;;;9.15;100.00;63901.03;5032127;28;20181;-53
2023/03/22 04:00:35;;;;;;;2.33;2.00;;;;;;;9.21;100.00;63907.59;5032100;28;20225;-54
2023/03/22 04:03:01;;;;;;;2.00;1.90;;;;;;;9.20;100.00;63907.03;5032000;28;20260;-55
2023/03/22 04:05:26;;;;;;;3.50;1.60;;;;;;;9.15;100.00;63901.56;5031741;28;20692;-58
2023/03/22 04:07:52;;;;;;;1.70;1.60;;;;;;;9.13;100.00;63899.38;5032543;28;20212;-53
2023/03/22 04:10:17;;;;;;;1.83;1.73;;;;;;;9.10;100.00;63896.13;5032226;28;20237;-56
2023/03/22 04:12:43;;;;;;;2.00;1.90;;;;;;;8.96;100.00;63878.31;5031927;28;20183;-56
2023/03/22 04:15:10;;;;;;;4.33;1.97;;;;;;;9.06;100.00;63891.75;5013876;28;20218;-53
2023/03/22 04:17:36;;;;;;;2.10;1.90;;;;;;;9.39;100.00;63926.72;5031513;28;20193;-59
2023/03/22 04:20:03;;;;;;;2.20;2.00;;;;;;;9.42;100.00;63928.03;5031923;28;20234;-54
2023/03/22 04:22:33;;;;;;;2.97;1.93;;;;;;;9.35;100.00;63922.91;5031573;28;20272;-55
2023/03/22 04:25:00;;;;;;;1.93;1.63;;;;;;;9.24;100.00;63910.88;5031750;28;20270;-55
2023/03/22 04:27:26;;;;;;;2.47;2.17;;;;;;;9.39;100.00;63927.28;5030353;28;20193;-55
2023/03/22 04:29:53;;;;;;;2.93;2.13;;;;;;;9.43;100.00;63931.66;5031427;28;20210;-56
2023/03/22 04:32:21;;;;;;;1.70;1.60;;;;;;;9.58;100.00;63947.50;5031650;28;20224;-55
2023/03/22 04:34:48;;;;;;;2.30;2.10;;;;;;;9.69;100.00;63957.00;5031412;28;20217;-58
2023/03/22 04:37:13;;;;;;;2.33;2.13;;;;;;;9.66;100.00;63954.28;5031525;28;20235;-53
2023/03/22 04:39:39;;;;;;;2.80;1.90;;;;;;;9.67;100.00;63957.88;5031666;28;20222;-54
2023/03/22 04:42:04;;;;;;;2.80;2.23;;;;;;;9.57;100.00;63946.94;5031418;28;20219;-58
2023/03/22 04:44:30;;;;;;;2.30;2.03;;;;;;;9.41;100.00;63929.47;5013538;28;20299;-54
2023/03/22 04:47:02;;;;;;;2.33;2.13;;;;;;;9.23;100.00;63909.78;5031410;28;20258;-54
2023/03/22 04:49:27;;;;;;;2.47;2.27;;;;;;;9.21;100.00;63907.59;5031352;28;20222;-57
2023/03/22 04:51:54;;;;;;;2.30;2.10;;;;;;;9.21;100.00;63907.59;5031221;28;20188;-56
2023/03/22 04:54:20;;;;;;;2.90;2.30;;;;;;;9.17;100.00;63903.22;5030964;28;20225;-56
2023/03/22 04:56:45;;;;;;;2.67;2.47;;;;;;;9.26;100.00;63913.06;5031231;28;20190;-56
2023/03/22 04:59:11;;;;;;;2.97;2.77;;;;;;;9.29;100.00;63914.34;5030976;28;20269;-58
2023/03/22 05:01:36;;;;;;;3.63;2.73;;;;;;;9.16;100.00;63902.66;5013231;28;20264;-59
2023/03/22 05:04:02;;;;;;;3.10;2.73;;;;;;;9.31;100.00;63916.53;5030501;28;20283;-59
2023/03/22 05:06:31;;;;;;;3.27;2.97;;;;;;;9.30;100.00;63917.97;5030980;28;20182;-56
2023/03/22 05:08:57;;;;;;;3.07;2.53;;;;;;;9.25;100.00;63909.47;5030785;28;20237;-58
2023/03/22 05:11:26;;;;;;;3.00;2.57;;;;;;;9.25;100.00;63911.97;5030944;28;20190;-60
2023/03/22 05:13:52;;;;;;;2.40;2.20;;;;;;;9.33;100.00;63923.22;5030817;28;20248;-56
2023/03/22 05:16:18;;;;;;;2.97;2.77;;;;;;;9.27;100.00;63919.19;5031085;28;20194;-58
2023/03/22 05:18:44;;;;;;;4.67;3.50;;;;;;;9.28;100.00;63915.25;5030777;28;20217;-54
2023/03/22 05:21:14;;;;;;;3.03;2.73;;;;;;;9.48;100.00;63932.06;5030717;28;20197;-55
2023/03/22 05:23:40;;;;;;;2.87;2.57;;;;;;;9.34;100.00;63919.28;5030857;28;20619;-54
2023/03/22 05:26:07;;;;;;;3.73;2.70;;;;;;;8.93;100.00;63874.47;5030703;28;20277;-57
2023/03/22 05:28:34;;;;;;;2.93;2.63;;;;;;;9.16;100.00;63899.59;5030645;28;20186;-60
2023/03/22 05:31:00;;;;;;;4.10;3.10;;;;;;;9.29;100.00;63916.34;5030850;28;20222;-60
2023/03/22 05:33:26;;;;;;;3.07;2.40;;;;;;;9.20;100.00;63903.97;5030848;28;20263;-58
2023/03/22 05:35:52;;;;;;;3.43;3.13;;;;;;;9.25;100.00;63914.47;5030586;28;20217;-54
2023/03/22 05:38:18;;;;;;;6.60;3.23;;;;;;;10.51;100.00;64048.69;5030344;28;20583;-55
2023/03/22 05:40:44;;;;;;;4.47;3.80;;;;;;;11.64;100.00;64171.91;5030118;28;20218;-55
2023/03/22 05:43:10;;;;;;;4.43;3.13;;;;;;;12.23;100.00;64231.56;5030127;28;20198;-54
2023/03/22 05:45:36;;;;;;;2.80;2.50;;;;;;;12.03;100.00;64214.69;5030680;28;20240;-54
2023/03/22 05:48:02;;;;;;;3.20;2.90;;;;;;;11.37;100.00;64139.81;5030294;28;20649;-55
2023/03/22 05:50:28;;;;;;;3.70;3.27;;;;;;;10.85;100.00;64083.41;5030136;28;20622;-56
2023/03/22 05:52:54;;;;;;;3.53;2.77;;;;;;;10.19;100.00;64013.69;5012259;28;20687;-55
2023/03/22 05:55:21;;;;;;;2.87;2.67;;;;;;;9.98;100.00;63989.25;5030462;28;20205;-54
2023/03/22 05:57:50;;;;;;;4.03;3.23;;;;;;;9.91;100.00;63981.63;5030320;28;20174;-54
2023/03/22 06:00:17;;;;;;;2.93;2.73;;;;;;;9.84;100.00;63973.94;5030092;28;20210;-56
2023/03/22 06:02:45;;;;;;;6.87;4.37;;;;;;;9.67;100.00;63954.81;5030114;28;20257;-53
2023/03/22 06:05:12;;;;;;;3.90;3.47;;;;;;;9.45;100.00;63933.28;5030046;28;20217;-55
2023/03/22 06:07:39;;;;;;;6.43;4.37;;;;;;;9.36;100.00;63923.97;5030093;28;20189;-53
2023/03/22 06:10:06;;;;;;;5.50;4.13;;;;;;;9.92;100.00;63984.66;5030287;28;20214;-55
2023/03/22 06:12:32;;;;;;;3.63;3.27;;;;;;;9.66;100.00;63956.78;5030108;28;20182;-54
2023/03/22 06:14:58;;;;;;;3.53;3.20;;;;;;;9.57;100.00;63949.47;5030064;28;20218;-59
2023/03/22 06:17:24;;;;;;;4.90;4.00;;;;;;;9.67;100.00;63957.88;5028902;28;20182;-60
2023/03/22 06:19:50;;;;;;;5.57;4.10;;;;;;;9.87;100.00;63977.25;5029907;28;20237;-60
2023/03/22 06:22:16;;;;;;;4.23;3.80;;;;;;;9.96;100.00;63987.09;5011987;28;20201;-57
2023/03/22 06:24:42;;;;;;;3.70;3.10;;;;;;;10.04;100.00;63998.34;5029892;28;20218;-59
2023/03/22 06:27:09;;;;;;;3.70;3.23;;;;;;;9.84;100.00;63976.47;5029906;28;20208;-59
2023/03/22 06:29:35;;;;;;;3.63;3.23;;;;;;;9.71;100.00;63961.72;5030229;28;20218;-56
2023/03/22 06:32:01;;;;;;;4.23;3.00;;;;;;;9.69;100.00;63959.53;5029753;28;20190;-59
2023/03/22 06:34:26;;;;;;;5.03;3.53;;;;;;;9.72;100.00;63963.34;5030156;28;20214;-54
2023/03/22 06:36:52;;;;;;;4.47;3.53;;;;;;;9.65;100.00;63955.16;5028448;28;20204;-54
2023/03/22 06:39:19;;;;;;;4.70;3.70;;;;;;;9.55;100.00;63944.78;5029719;28;20309;-55
2023/03/22 06:41:45;;;;;;;5.77;4.10;;;;;;;9.73;100.00;63963.91;5029554;28;20198;-55
2023/03/22 06:44:10;;;;;;;6.33;4.33;;;;;;;9.64;100.00;63952.09;5029691;28;20214;-56
2023/03/22 06:46:36;;;;;;;5.77;4.23;;;;;;;9.44;100.00;63932.19;5029907;28;20194;-54
2023/03/22 06:49:02;;;;;;;5.83;4.10;;;;;;;9.52;100.00;63938.97;5029439;28;20233;-56
2023/03/22 06:51:27;;;;;;;4.43;4.03;;;;;;;9.49;100.00;63935.69;5029553;28;20186;-56
2023/03/22 06:53:53;;;;;;;4.43;3.60;;;;;;;9.31;100.00;63918.53;5029659;28;20558;-56
2023/03/22 06:56:19;;;;;;;4.50;3.97;;;;;;;9.45;100.00;63933.84;5014867;28;20415;-55
2023/03/22 06:58:45;;;;;;;6.23;3.97;;;;;;;9.55;100.00;63946.72;5032837;28;20198;-59
2023/03/22 07:01:10;;;;;;;3.13;2.83;;;;;;;9.47;100.00;63938.53;5032844;28;20192;-56
2023/03/22 07:03:35;;;;;;;8.23;4.47;;;;;;;9.63;100.00;63951.00;5032792;28;20287;-58
2023/03/22 07:06:07;;;;;;;5.00;4.47;;;;;;;9.69;100.00;63957.56;5032715;28;20186;-58
2023/03/22 07:08:34;;;;;;;7.10;4.80;;;;;;;9.66;100.00;63956.78;5032599;28;20201;-54
2023/03/22 07:11:00;;;;;;;5.10;3.83;;;;;;;9.54;100.00;63945.63;5032678;28;20198;-60
2023/03/22 07:13:25;;;;;;;3.37;3.07;;;;;;;9.54;100.00;63943.66;5032695;28;20201;-60
2023/03/22 07:15:56;;;;;;;3.93;3.30;;;;;;;9.65;100.00;63955.16;5032509;28;20209;-60
2023/03/22 07:18:21;;;;;;;4.00;3.37;;;;;;;9.46;100.00;63936.88;5032434;28;20201;-54
2023/03/22 07:20:46;;;;;;;4.80;3.03;;;;;;;9.49;100.00;63935.69;5032550;28;20210;-59
2023/03/22 07:23:14;;;;;;;4.80;3.53;;;;;;;9.60;100.00;63949.66;5032355;28;20183;-54
2023/03/22 07:25:39;;;;;;;3.97;3.13;;;;;;;9.56;100.00;63950.88;5032232;28;20229;-57
2023/03/22 07:28:05;;;;;;;4.00;3.33;;;;;;;9.67;100.00;63959.84;5032331;28;20182;-55
2023/03/22 07:30:34;;;;;;;4.00;2.90;;;;;;;9.72;100.00;63962.78;5032252;28;20267;-58
2023/03/22 07:33:00;;;;;;;4.87;3.60;;;;;;;9.55;100.00;63944.78;5032548;28;20178;-56
2023/03/22 07:35:26;;;;;;;5.73;4.10;;;;;;;9.73;100.00;63966.97;5032370;28;20214;-56
2023/03/22 07:37:51;;;;;;;5.60;4.43;;;;;;;9.75;100.00;63968.59;5032210;28;20221;-57
2023/03/22 07:40:18;;;;;;;5.13;3.23;;;;;;;9.90;100.00;63983.03;5032699;28;20713;-57
2023/03/22 07:42:47;;;;;;;5.37;3.77;;;;;;;9.85;100.00;63980.09;5032259;28;20198;-57
2023/03/22 07:45:12;;;;;;;4.60;4.17;;;;;;;10.00;100.00;63993.97;5032225;28;20214;-55
2023/03/22 07:47:37;;;;;;;4.83;3.93;;;;;;;10.16;100.00;64010.41;5032067;28;20194;-56
2023/03/22 07:50:03;;;;;;;4.33;3.70;;;;;;;10.16;100.00;64010.41;5032008;28;20252;-59
2023/03/22 07:52:29;;;;;;;4.53;3.67;;;;;;;10.09;100.00;64001.31;5031861;28;20190;-55
2023/03/22 07:54:54;;;;;;;4.60;3.27;;;;;;;9.90;100.00;63982.47;5014212;28;20530;-57
2023/03/22 07:57:20;;;;;;;4.00;3.17;;;;;;;9.79;100.00;63970.47;5031772;28;20230;-56
2023/03/22 07:59:45;;;;;;;3.90;3.27;;;;;;;9.77;100.00;63966.31;5031640;28;20608;-60
2023/03/22 08:02:11;;;;;;;6.60;4.10;;;;;;;10.00;100.00;63990.91;5031949;28;20190;-57
2023/03/22 08:04:36;;;;;;;7.40;3.83;;;;;;;10.05;100.00;63998.91;5032151;28;20212;-59
2023/03/22 08:07:02;;;;;;;4.73;4.27;;;;;;;10.06;100.00;63999.97;5031542;28;20183;-56
2023/03/22 08:09:27;;;;;;;6.23;4.37;;;;;;;10.10;100.00;64004.38;5032062;28;20451;-54
2023/03/22 08:11:53;;;;;;;7.77;4.63;;;;;;;10.20;100.00;64014.78;5031737;28;20656;-54
2023/03/22 08:14:18;;;;;;;7.37;4.63;;;;;;;10.24;100.00;64019.16;5031856;28;20202;-55
2023/03/22 08:16:45;;;;;;;5.17;4.50;;;;;;;10.27;100.00;64024.97;5031632;28;20182;-54
2023/03/22 08:19:11;;;;;;;7.80;4.93;;;;;;;10.21;100.00;64015.88;5013543;28;20245;-56
2023/03/22 08:21:36;;;;;;;8.47;5.00;;;;;;;10.24;100.00;64019.16;5031619;28;20186;-58
2023/03/22 08:24:03;;;;;;;6.27;4.73;;;;;;;10.26;100.00;64024.41;5031656;28;20202;-54
2023/03/22 08:26:28;;;;;;;7.57;4.80;;;;;;;10.12;100.00;64007.13;5031597;28;20278;-60
2023/03/22 08:28:54;;;;;;;9.77;5.00;;;;;;;10.17;100.00;64011.50;5031571;28;20309;-58
2023/03/22 08:31:21;;;;;;;8.13;4.83;;;;;;;10.20;100.00;64012.28;5031532;28;20439;-57
2023/03/22 08:33:49;;;;;;;8.90;6.07;;;;;;;10.16;100.00;64010.41;5031399;28;20229;-54
2023/03/22 08:36:18;;;;;;;9.77;4.60;;;;;;;10.07;100.00;64001.63;5013661;28;20194;-58
2023/03/22 08:38:44;;;;;;;6.40;5.13;;;;;;;10.09;100.00;64003.28;5031233;28;20198;-55
2023/03/22 08:41:14;;;;;;;8.50;5.83;;;;;;;10.24;100.00;64019.16;5031356;28;20190;-56
2023/03/22 08:43:40;;;;;;;12.80;6.50;;;;;;;10.22;100.00;64017.50;5031465;28;20204;-56
2023/03/22 08:46:06;;;;;;;11.87;6.67;;;;;;;10.28;100.00;64021.03;5031095;28;20190;-58
2023/03/22 08:48:31;;;;;;;8.80;6.37;;;;;;;10.18;100.00;64010.09;5030989;28;20627;-59
2023/03/22 08:50:57;;;;;;;11.80;6.40;;;;;;;10.18;100.00;64007.56;5031191;28;20540;-60
2023/03/22 08:53:23;;;;;;;12.30;6.47;;;;;;;10.39;100.00;64036.13;5031023;28;20178;-60
2023/03/22 08:55:48;;;;;;;10.67;5.80;;;;;;;10.45;100.00;64042.13;5030986;28;20248;-56
2023/03/22 08:58:15;;;;;;;8.17;5.37;;;;;;;10.24;100.00;64021.69;5031136;28;20178;-57
2023/03/22 09:00:42;;;;;;;8.57;5.60;;;;;;;10.30;100.00;64023.22;5012985;28;20283;-56
2023/03/22 09:03:07;;;;;;;10.30;5.33;;;;;;;10.19;100.00;64011.16;5031060;28;20213;-55
2023/03/22 09:05:33;;;;;;;9.20;6.40;;;;;;;10.21;100.00;64016.44;5030936;28;20210;-57
2023/03/22 09:07:59;;;;;;;7.57;6.13;;;;;;;10.20;100.00;64014.78;5013292;28;20212;-62
2023/03/22 09:10:24;;;;;;;9.33;6.73;;;;;;;10.54;100.00;64049.47;5031219;28;20213;-56
2023/03/22 09:12:50;;;;;;;8.37;5.80;;;;;;;10.64;100.00;64063.50;5030977;28;20228;-56
2023/03/22 09:15:15;;;;;;;8.83;4.97;;;;;;;10.63;100.00;64061.84;5029417;28;20308;-55
2023/03/22 09:17:41;;;;;;;6.67;4.87;;;;;;;10.41;100.00;64038.31;5030137;28;20204;-60
2023/03/22 09:20:07;;;;;;;7.03;5.27;;;;;;;10.42;100.00;64041.94;5030915;28;20237;-58
2023/03/22 09:22:32;;;;;;;8.97;7.40;;;;;;;10.45;100.00;64042.13;5030917;28;20753;-57
2023/03/22 09:24:58;;;;;;;11.33;8.97;;;;;;;10.49;100.00;64047.06;5030625;28;20221;-56
2023/03/22 09:27:23;;;;;;;8.33;7.40;;;;;;;10.42;100.00;64036.34;5030815;28;20195;-58
2023/03/22 09:29:51;;;;;;;8.63;6.00;;;;;;;10.50;100.00;64047.63;5031067;28;20753;-58
2023/03/22 09:32:16;;;;;;;15.83;9.57;;;;;;;10.45;100.00;64037.09;5030446;28;20198;-58
2023/03/22 09:34:42;;;;;;;10.27;7.23;;;;;;;10.63;100.00;64061.84;5030677;28;20275;-55
2023/03/22 09:37:07;;;;;;;9.10;6.87;;;;;;;10.53;100.00;64048.38;5029377;28;20182;-59
2023/03/22 09:39:37;;;;;;;13.57;9.70;;;;;;;10.53;100.00;64051.44;5030214;28;20691;-60
2023/03/22 09:42:06;;;;;;;11.17;8.70;;;;;;;10.52;100.00;64049.81;5030466;28;20185;-55
2023/03/22 09:44:40;;;;;;;17.47;13.07;;;;;;;10.47;100.00;64044.88;5030655;28;20210;-59
2023/03/22 09:47:12;;;;;;;18.93;15.80;;;;;;;10.54;100.00;64052.00;5030509;28;20276;-55
2023/03/22 09:49:41;;;;;;;21.63;15.03;;;;;;;10.78;100.00;64075.75;5028978;28;20319;-55
2023/03/22 09:52:13;;;;;;;22.40;15.50;;;;;;;10.61;100.00;64060.19;5030409;28;20596;-55
2023/03/22 09:54:41;;;;;;;18.97;13.70;;;;;;;10.71;100.00;64070.59;5030791;28;20679;-55
2023/03/22 09:57:32;;;;;;;20.50;13.37;;;;;;;10.94;100.00;64093.25;5030276;28;20193;-58
2023/03/22 10:00:17;;;;;;;14.70;11.50;;;;;;;11.04;100.00;64103.66;5030533;28;20222;-57
2023/03/22 10:02:45;;;;;;;15.80;9.60;;;;;;;10.96;100.00;64092.94;5030291;28;20271;-54
2023/03/22 10:05:20;;;;;;;11.40;9.30;;;;;;;10.87;100.00;64083.06;5012432;28;20221;-57
2023/03/22 10:07:51;;;;;;;9.90;8.60;;;;;;;10.87;100.00;64090.63;5030133;28;20274;-55
2023/03/22 10:10:22;;;;;;;10.87;8.90;;;;;;;10.85;100.00;64085.91;5030239;28;20761;-56
2023/03/22 10:13:15;;;;;;;11.70;9.17;;;;;;;10.87;100.00;64085.59;5029974;28;20183;-56
2023/03/22 10:15:52;;;;;;;9.43;8.40;;;;;;;10.88;100.00;64089.22;5030159;28;20230;-57
2023/03/22 10:18:23;;;;;;;8.87;7.53;;;;;;;10.69;100.00;64068.97;5029997;28;20185;-59
2023/03/22 10:21:06;;;;;;;8.63;6.67;;;;;;;10.65;100.00;64064.03;5029999;28;20275;-59
2023/03/22 10:23:48;;;;;;;7.60;6.20;;;;;;;10.66;100.00;64063.16;5029868;28;20179;-60
2023/03/22 10:26:31;;;;;;;6.03;5.03;;;;;;;10.57;100.00;64055.28;5029905;28;20194;-59
2023/03/22 10:29:28;;;;;;;6.30;5.30;;;;;;;10.84;100.00;64079.78;5030625;28;20742;-56
2023/03/22 10:31:55;;;;;;;7.60;5.07;;;;;;;10.82;100.00;64080.69;5028889;28;20213;-54
2023/03/22 10:34:32;;;;;;;6.03;4.70;;;;;;;10.79;100.00;64074.31;5033267;28;20202;-54
2023/03/22 10:37:03;;;;;;;8.43;5.90;;;;;;;10.83;100.00;64081.22;5033275;28;20197;-54
2023/03/22 10:39:37;;;;;;;6.20;4.93;;;;;;;10.95;100.00;64096.88;5033335;28;20218;-60
2023/03/22 10:42:16;;;;;;;6.80;5.67;;;;;;;11.17;100.00;64117.91;5033418;28;20570;-54
2023/03/22 10:44:50;;;;;;;11.33;8.33;;;;;;;11.29;100.00;64133.56;5032765;28;20218;-58
2023/03/22 10:47:23;;;;;;;10.37;6.50;;;;;;;11.28;100.00;64133.03;5032925;28;20243;-56
2023/03/22 10:49:53;;;;;;;10.43;6.83;;;;;;;11.22;100.00;64126.44;5033284;28;20221;-56
2023/03/22 10:52:38;;;;;;;10.27;6.50;;;;;;;11.28;100.00;64129.94;5014953;28;20201;-54
2023/03/22 10:55:09;;;;;;;9.47;7.10;;;;;;;11.09;100.00;64106.63;5032922;28;20240;-54
2023/03/22 10:57:36;;;;;;;12.40;8.23;;;;;;;11.20;100.00;64121.75;5032862;28;20202;-60
2023/03/22 11:00:08;;;;;;;6.13;4.80;;;;;;;11.34;100.00;64137.06;5032691;28;20229;-57
2023/03/22 11:02:34;;;;;;;7.80;4.73;;;;;;;11.41;100.00;64147.25;5033011;28;20190;-54
2023/03/22 11:05:03;;;;;;;11.70;7.87;;;;;;;11.53;100.00;64157.88;5033362;28;20213;-55
2023/03/22 11:07:34;;;;;;;6.90;5.30;;;;;;;11.68;100.00;64174.34;5032673;28;20197;-61
2023/03/22 11:10:03;;;;;;;5.43;4.80;;;;;;;11.75;100.00;64184.00;5032765;28;20299;-60
2023/03/22 11:12:28;;;;;;;8.07;5.03;;;;;;;11.62;100.00;64170.28;5032746;28;20198;-60
2023/03/22 11:14:55;;;;;;;7.43;5.63;;;;;;;11.65;100.00;64173.00;5032431;28;20210;-59
2023/03/22 11:17:27;;;;;;;6.53;5.30;;;;;;;11.71;100.00;64177.63;5031794;28;20621;-54
2023/03/22 11:19:57;;;;;;;6.50;4.80;;;;;;;11.71;100.00;64177.09;5032211;28;20221;-56
2023/03/22 11:22:32;;;;;;;5.05;4.05;;;;;;;11.79;100.00;64186.41;5032377;28;20205;-55
2023/03/22 11:24:58;;;;;;;5.80;4.47;;;;;;;11.55;100.00;64162.59;5032750;28;20222;-57
2023/03/22 11:27:29;;;;;;;5.00;4.50;;;;;;;11.47;99.82;64153.81;5032443;28;20199;-57
2023/03/22 11:30:19;;;;;;;7.60;4.47;;;;;;;11.68;99.64;64174.34;5032477;28;20206;-59
2023/03/22 11:32:44;;;;;;;4.40;4.00;;;;;;;11.63;100.00;64168.31;5032202;28;20190;-60
2023/03/22 11:35:21;;;;;;;6.03;3.90;;;;;;;11.84;100.00;64190.78;5032342;28;20256;-58
2023/03/22 11:37:47;;;;;;;5.05;3.78;;;;;;;11.85;100.00;64191.88;5032266;28;20207;-60